createdAt,value
2019-06-01T00:01:16.732Z,13.5
2019-06-01T00:02:28.931Z,13.4
2019-06-01T00:03:41.133Z,13.4
2019-06-01T00:04:53.323Z,13.4
2019-06-01T00:06:05.533Z,13.5
2019-06-01T00:07:17.731Z,13.3
2019-06-01T00:08:29.922Z,13.4
2019-06-01T00:09:42.132Z,13.5
2019-06-01T00:10:54.330Z,13.3
2019-06-01T00:12:06.053Z,13.3
2019-06-01T00:13:18.744Z,13.3
2019-06-01T00:14:30.931Z,13.3
2019-06-01T00:15:43.141Z,13.2
2019-06-01T00:16:55.344Z,13.4
2019-06-01T00:18:07.053Z,13.3
2019-06-01T00:19:19.743Z,13.2
2019-06-01T00:20:31.943Z,13.3
2019-06-01T00:21:44.013Z,13.4
2019-06-01T00:22:56.351Z,13.3
2019-06-01T00:24:08.554Z,13.3
2019-06-01T00:25:20.749Z,13.3
2019-06-01T00:26:32.948Z,13.4
2019-06-01T00:27:45.142Z,13.5
2019-06-01T00:28:57.350Z,13.5
2019-06-01T00:30:09.551Z,13.4
2019-06-01T00:31:21.740Z,13.4
2019-06-01T00:32:33.951Z,13.5
2019-06-01T00:33:46.153Z,13.5
2019-06-01T00:34:58.359Z,13.5
2019-06-01T00:36:10.557Z,13.4
2019-06-01T00:37:22.750Z,13.5
2019-06-01T00:38:34.959Z,13.5
2019-06-01T00:39:47.156Z,13.5
2019-06-01T00:40:59.357Z,13.6
2019-06-01T00:42:11.557Z,13.4
2019-06-01T00:43:23.757Z,13.5
2019-06-01T00:44:35.959Z,13.5
2019-06-01T00:45:48.207Z,13.5
2019-06-01T00:47:00.036Z,13.6
2019-06-01T00:48:12.569Z,13.6
2019-06-01T00:49:24.768Z,13.6
2019-06-01T00:50:36.958Z,13.6
2019-06-01T00:51:49.165Z,13.7
2019-06-01T00:53:01.365Z,13.7
2019-06-01T00:54:13.567Z,13.6
2019-06-01T00:55:25.784Z,13.7
2019-06-01T00:56:37.975Z,13.7
2019-06-01T00:57:50.017Z,13.7
2019-06-01T00:59:02.376Z,13.7
2019-06-01T01:00:14.569Z,13.8
2019-06-01T01:01:26.777Z,13.8
2019-06-01T01:02:38.996Z,13.8
2019-06-01T01:03:51.173Z,13.7
2019-06-01T01:05:03.381Z,13.7
2019-06-01T01:06:15.058Z,13.7
2019-06-01T01:07:27.775Z,13.8
2019-06-01T01:08:39.985Z,13.8
2019-06-01T01:09:52.183Z,13.7
2019-06-01T01:11:04.378Z,13.8
2019-06-01T01:12:16.581Z,13.9
2019-06-01T01:13:28.775Z,13.8
2019-06-01T01:14:40.985Z,13.7
2019-06-01T01:15:53.195Z,13.6
2019-06-01T01:17:05.385Z,13.7
2019-06-01T01:19:29.794Z,13.8
2019-06-01T01:20:41.995Z,13.8
2019-06-01T01:21:54.196Z,13.7
2019-06-01T01:23:06.389Z,13.7
2019-06-01T01:24:18.608Z,13.8
2019-06-01T01:25:30.793Z,13.8
2019-06-01T01:26:43.003Z,13.8
2019-06-01T01:27:55.203Z,13.8
2019-06-01T01:29:07.401Z,13.7
2019-06-01T01:30:19.595Z,13.7
2019-06-01T01:31:31.008Z,13.7
2019-06-01T01:32:44.003Z,13.8
2019-06-01T01:33:56.193Z,13.8
2019-06-01T01:35:08.716Z,13.8
2019-06-01T01:36:20.593Z,13.9
2019-06-01T01:37:32.813Z,13.8
2019-06-01T01:38:45.011Z,13.8
2019-06-01T01:39:57.206Z,13.8
2019-06-01T01:41:09.414Z,13.9
2019-06-01T01:42:21.611Z,13.8
2019-06-01T01:43:33.811Z,13.8
2019-06-01T01:44:46.011Z,13.8
2019-06-01T01:45:58.203Z,13.8
2019-06-01T01:47:10.417Z,13.8
2019-06-01T01:48:22.621Z,13.8
2019-06-01T01:49:34.817Z,13.8
2019-06-01T01:50:47.002Z,13.8
2019-06-01T01:51:59.221Z,13.8
2019-06-01T01:53:11.421Z,13.8
2019-06-01T01:54:23.620Z,13.8
2019-06-01T01:55:35.081Z,13.9
2019-06-01T01:56:48.030Z,13.8
2019-06-01T01:58:00.230Z,13.8
2019-06-01T01:59:12.421Z,13.8
2019-06-01T02:00:24.062Z,13.9
2019-06-01T02:01:36.830Z,13.9
2019-06-01T02:02:49.022Z,13.9
2019-06-01T02:04:01.022Z,13.8
2019-06-01T02:05:13.429Z,13.8
2019-06-01T02:06:25.627Z,13.8
2019-06-01T02:07:37.838Z,13.8
2019-06-01T02:08:50.032Z,13.8
2019-06-01T02:10:02.238Z,13.8
2019-06-01T02:11:14.437Z,13.7
2019-06-01T02:12:26.640Z,13.8
2019-06-01T02:13:38.838Z,13.8
2019-06-01T02:14:51.071Z,13.7
2019-06-01T02:16:03.228Z,13.8
2019-06-01T02:17:15.436Z,13.8
2019-06-01T02:18:27.650Z,13.8
2019-06-01T02:19:39.849Z,13.7
2019-06-01T02:20:52.048Z,13.8
2019-06-01T02:23:16.448Z,13.8
2019-06-01T02:24:28.648Z,13.8
2019-06-01T02:25:40.837Z,13.8
2019-06-01T02:26:53.048Z,13.8
2019-06-01T02:28:05.248Z,13.9
2019-06-01T02:29:17.461Z,13.9
2019-06-01T02:30:29.655Z,14
2019-06-01T02:31:41.848Z,13.9
2019-06-01T02:32:54.056Z,13.9
2019-06-01T02:34:06.256Z,13.8
2019-06-01T02:35:18.452Z,13.8
2019-06-01T02:36:30.656Z,13.8
2019-06-01T02:37:42.854Z,13.9
2019-06-01T02:38:55.048Z,13.7
2019-06-01T02:40:07.264Z,13.7
2019-06-01T02:41:19.466Z,13.9
2019-06-01T02:42:31.065Z,13.8
2019-06-01T02:43:43.863Z,13.9
2019-06-01T02:44:56.006Z,13.7
2019-06-01T02:46:08.265Z,13.8
2019-06-01T02:47:20.462Z,13.6
2019-06-01T02:48:32.661Z,13.8
2019-06-01T02:49:44.866Z,13.8
2019-06-01T02:50:57.062Z,13.8
2019-06-01T02:52:09.262Z,13.7
2019-06-01T02:53:21.500Z,13.8
2019-06-01T02:54:33.662Z,13.8
2019-06-01T02:55:45.856Z,13.7
2019-06-01T02:56:58.065Z,13.9
2019-06-01T02:58:10.252Z,13.7
2019-06-01T02:59:22.452Z,13.8
2019-06-01T03:00:34.652Z,13.9
2019-06-01T03:01:46.842Z,13.9
2019-06-01T03:02:59.052Z,13.8
2019-06-01T03:04:11.254Z,13.9
2019-06-01T03:05:23.444Z,13.9
2019-06-01T03:06:35.654Z,13.8
2019-06-01T03:07:47.852Z,14
2019-06-01T03:09:00.054Z,13.9
2019-06-01T03:10:12.242Z,13.9
2019-06-01T03:11:24.432Z,14
2019-06-01T03:12:36.642Z,14
2019-06-01T03:13:48.840Z,14
2019-06-01T03:15:01.052Z,14
2019-06-01T03:16:13.252Z,14.1
2019-06-01T03:17:25.440Z,14.1
2019-06-01T03:18:37.632Z,14
2019-06-01T03:19:49.084Z,14
2019-06-01T03:21:02.040Z,14
2019-06-01T03:22:14.233Z,14
2019-06-01T03:23:26.432Z,14.1
2019-06-01T03:24:38.631Z,14.1
2019-06-01T03:25:50.840Z,14.1
2019-06-01T03:27:03.028Z,14.2
2019-06-01T03:28:15.221Z,14
2019-06-01T03:29:27.424Z,14.1
2019-06-01T03:30:39.630Z,14.2
2019-06-01T03:31:51.826Z,14.2
2019-06-01T03:33:04.024Z,14.2
2019-06-01T03:34:16.232Z,14.2
2019-06-01T03:35:28.428Z,14.1
2019-06-01T03:36:40.627Z,14.2
2019-06-01T03:37:52.832Z,14.1
2019-06-01T03:39:05.031Z,14.2
2019-06-01T03:40:17.219Z,14.4
2019-06-01T03:41:29.409Z,14.2
2019-06-01T03:42:41.621Z,14.4
2019-06-01T03:43:53.819Z,14.3
2019-06-01T03:45:06.009Z,14.2
2019-06-01T03:46:18.217Z,14.3
2019-06-01T03:47:30.419Z,14.2
2019-06-01T03:48:42.617Z,14.4
2019-06-01T03:49:54.819Z,14.4
2019-06-01T03:51:07.011Z,14.4
2019-06-01T03:52:19.217Z,14.4
2019-06-01T03:53:31.417Z,14.3
2019-06-01T03:54:43.601Z,14.5
2019-06-01T03:55:55.805Z,14.6
2019-06-01T03:57:08.005Z,14.5
2019-06-01T03:58:20.199Z,14.4
2019-06-01T03:59:32.408Z,14.4
2019-06-01T04:00:44.608Z,14.6
2019-06-01T04:01:56.804Z,14.5
2019-06-01T04:03:09.007Z,14.5
2019-06-01T04:04:21.197Z,14.5
2019-06-01T04:05:33.407Z,14.5
2019-06-01T04:06:45.610Z,14.5
2019-06-01T04:07:57.796Z,14.6
2019-06-01T04:09:10.005Z,14.5
2019-06-01T04:10:22.197Z,14.5
2019-06-01T04:11:34.401Z,14.4
2019-06-01T04:12:46.595Z,14.5
2019-06-01T04:13:58.785Z,14.5
2019-06-01T04:15:10.997Z,14.6
2019-06-01T04:16:23.196Z,14.6
2019-06-01T04:17:35.399Z,14.5
2019-06-01T04:18:47.591Z,14.6
2019-06-01T04:19:59.795Z,14.5
2019-06-01T04:21:11.986Z,14.5
2019-06-01T04:22:24.193Z,14.6
2019-06-01T04:23:36.396Z,14.5
2019-06-01T04:24:48.610Z,14.6
2019-06-01T04:26:00.782Z,14.5
2019-06-01T04:27:12.971Z,14.5
2019-06-01T04:28:25.183Z,14.5
2019-06-01T04:29:37.383Z,14.6
2019-06-01T04:30:49.574Z,14.7
2019-06-01T04:32:01.777Z,14.7
2019-06-01T04:33:13.098Z,14.7
2019-06-01T04:34:26.183Z,14.7
2019-06-01T04:35:38.441Z,14.7
2019-06-01T04:36:50.574Z,14.7
2019-06-01T04:38:02.782Z,14.9
2019-06-01T04:39:14.980Z,14.7
2019-06-01T04:40:27.184Z,14.8
2019-06-01T04:41:39.382Z,14.7
2019-06-01T04:42:51.580Z,14.8
2019-06-01T04:44:03.076Z,14.8
2019-06-01T04:45:15.096Z,14.7
2019-06-01T04:46:28.171Z,14.8
2019-06-01T04:47:40.375Z,14.9
2019-06-01T04:48:52.057Z,14.9
2019-06-01T04:50:04.763Z,14.9
2019-06-01T04:52:29.019Z,14.8
2019-06-01T04:53:41.364Z,14.8
2019-06-01T04:54:53.568Z,15
2019-06-01T04:56:05.772Z,14.9
2019-06-01T04:57:17.958Z,14.8
2019-06-01T04:58:30.164Z,15
2019-06-01T04:59:42.350Z,15
2019-06-01T05:00:54.558Z,14.9
2019-06-01T05:02:06.760Z,15
2019-06-01T05:03:18.960Z,15.1
2019-06-01T05:04:31.156Z,15.1
2019-06-01T05:05:43.360Z,15
2019-06-01T05:06:55.550Z,15
2019-06-01T05:08:07.758Z,15.1
2019-06-01T05:09:19.949Z,15.1
2019-06-01T05:10:32.158Z,15.1
2019-06-01T05:11:44.348Z,15.1
2019-06-01T05:12:56.540Z,15.1
2019-06-01T05:14:08.748Z,15.1
2019-06-01T05:16:33.138Z,15.1
2019-06-01T05:17:45.348Z,15.1
2019-06-01T05:18:57.552Z,15.1
2019-06-01T05:20:09.748Z,15.1
2019-06-01T05:21:21.947Z,15.2
2019-06-01T05:22:34.140Z,15.1
2019-06-01T05:23:46.034Z,15.2
2019-06-01T05:24:58.546Z,15.2
2019-06-01T05:26:10.737Z,15.2
2019-06-01T05:27:22.938Z,15.3
2019-06-01T05:28:35.136Z,15.2
2019-06-01T05:29:47.333Z,15.5
2019-06-01T05:30:59.550Z,15.4
2019-06-01T05:32:11.741Z,15.4
2019-06-01T05:33:23.927Z,15.6
2019-06-01T05:34:36.013Z,15.7
2019-06-01T05:35:48.032Z,15.7
2019-06-01T05:37:00.536Z,15.8
2019-06-01T05:38:12.737Z,15.7
2019-06-01T05:39:24.929Z,15.8
2019-06-01T05:40:37.123Z,15.9
2019-06-01T05:41:49.326Z,16
2019-06-01T05:43:01.522Z,16.1
2019-06-01T05:44:13.723Z,16.3
2019-06-01T05:45:25.916Z,16.2
2019-06-01T05:46:38.123Z,16.3
2019-06-01T05:47:50.325Z,16.3
2019-06-01T05:49:02.517Z,16.4
2019-06-01T05:50:14.072Z,16.4
2019-06-01T05:51:26.922Z,16.6
2019-06-01T05:52:39.106Z,16.5
2019-06-01T05:53:51.340Z,16.4
2019-06-01T05:55:03.513Z,16.6
2019-06-01T05:56:15.704Z,16.6
2019-06-01T05:57:27.914Z,16.6
2019-06-01T05:58:40.105Z,16.6
2019-06-01T05:59:52.327Z,16.8
2019-06-01T06:01:04.514Z,17
2019-06-01T06:02:16.707Z,16.9
2019-06-01T06:03:28.902Z,17.1
2019-06-01T06:04:41.105Z,17.1
2019-06-01T06:05:53.303Z,17.5
2019-06-01T06:07:05.005Z,17.5
2019-06-01T06:08:17.694Z,17.6
2019-06-01T06:09:29.893Z,17.4
2019-06-01T06:10:42.104Z,17.5
2019-06-01T06:11:54.303Z,17.4
2019-06-01T06:13:06.501Z,17.2
2019-06-01T06:14:18.703Z,17.2
2019-06-01T06:15:30.901Z,17
2019-06-01T06:16:43.010Z,17.1
2019-06-01T06:17:55.289Z,16.9
2019-06-01T06:19:07.491Z,16.9
2019-06-01T06:20:19.692Z,16.9
2019-06-01T06:21:31.881Z,16.9
2019-06-01T06:22:44.092Z,16.9
2019-06-01T06:23:56.290Z,17.1
2019-06-01T06:25:08.483Z,17
2019-06-01T06:26:20.069Z,17
2019-06-01T06:27:32.891Z,17.1
2019-06-01T06:28:45.091Z,17.2
2019-06-01T06:29:57.289Z,17.2
2019-06-01T06:31:09.471Z,17.3
2019-06-01T06:32:21.067Z,17.5
2019-06-01T06:33:33.088Z,17.6
2019-06-01T06:34:46.087Z,17.9
2019-06-01T06:35:58.277Z,17.9
2019-06-01T06:37:10.479Z,17.9
2019-06-01T06:38:22.670Z,17.8
2019-06-01T06:39:34.873Z,17.9
2019-06-01T06:40:47.077Z,17.8
2019-06-01T06:41:59.277Z,17.6
2019-06-01T06:43:11.477Z,17.6
2019-06-01T06:44:23.671Z,17.6
2019-06-01T06:45:35.086Z,17.8
2019-06-01T06:46:48.070Z,17.8
2019-06-01T06:48:00.261Z,17.9
2019-06-01T06:49:12.468Z,17.8
2019-06-01T06:50:24.667Z,17.7
2019-06-01T06:51:36.093Z,17.6
2019-06-01T06:52:49.066Z,17.4
2019-06-01T06:54:01.267Z,17.2
2019-06-01T06:55:13.466Z,16.9
2019-06-01T06:56:25.066Z,16.7
2019-06-01T06:57:37.867Z,16.7
2019-06-01T06:58:50.005Z,16.6
2019-06-01T07:00:02.263Z,16.6
2019-06-01T07:01:14.447Z,16.5
2019-06-01T07:02:26.655Z,16.4
2019-06-01T07:03:38.855Z,16.7
2019-06-01T07:04:51.059Z,16.7
2019-06-01T07:06:03.258Z,16.7
2019-06-01T07:07:15.445Z,16.9
2019-06-01T07:08:27.667Z,17.2
2019-06-01T07:09:39.855Z,17.4
2019-06-01T07:10:52.047Z,17.6
2019-06-01T07:12:04.246Z,17.5
2019-06-01T07:13:16.444Z,17.5
2019-06-01T07:14:28.644Z,17.3
2019-06-01T07:15:40.084Z,17.1
2019-06-01T07:16:53.051Z,17.2
2019-06-01T07:18:05.243Z,17.1
2019-06-01T07:19:17.444Z,17.2
2019-06-01T07:20:29.644Z,17.1
2019-06-01T07:21:41.843Z,17.2
2019-06-01T07:22:54.004Z,17.3
2019-06-01T07:24:06.234Z,17.4
2019-06-01T07:25:18.440Z,17.2
2019-06-01T07:26:30.632Z,17.4
2019-06-01T07:27:42.832Z,17.3
2019-06-01T07:28:55.003Z,17.3
2019-06-01T07:30:07.226Z,17.4
2019-06-01T07:31:19.434Z,17.5
2019-06-01T07:32:31.631Z,17.3
2019-06-01T07:33:43.083Z,17.4
2019-06-01T07:34:56.032Z,17.7
2019-06-01T07:36:08.232Z,18.1
2019-06-01T07:37:20.433Z,18.5
2019-06-01T07:38:32.623Z,18.6
2019-06-01T07:39:44.824Z,18.6
2019-06-01T07:40:57.020Z,18.5
2019-06-01T07:42:09.225Z,18.6
2019-06-01T07:43:21.042Z,19
2019-06-01T07:44:33.622Z,19
2019-06-01T07:45:45.822Z,19.1
2019-06-01T07:46:58.016Z,19.1
2019-06-01T07:48:10.022Z,18.9
2019-06-01T07:49:22.004Z,19.2
2019-06-01T07:50:34.622Z,19
2019-06-01T07:51:46.812Z,19.3
2019-06-01T07:52:58.998Z,19.1
2019-06-01T07:54:11.210Z,19
2019-06-01T07:55:23.412Z,19.3
2019-06-01T07:56:35.603Z,19.4
2019-06-01T07:57:47.808Z,19.7
2019-06-01T07:59:00.013Z,19.7
2019-06-01T08:00:12.210Z,19.8
2019-06-01T08:01:24.408Z,19.8
2019-06-01T08:02:36.608Z,20
2019-06-01T08:03:48.807Z,20.1
2019-06-01T08:05:01.008Z,20.2
2019-06-01T08:06:13.198Z,20.3
2019-06-01T08:07:25.039Z,20.5
2019-06-01T08:08:37.598Z,20.6
2019-06-01T08:09:49.794Z,20.6
2019-06-01T08:11:01.998Z,20.6
2019-06-01T08:12:14.202Z,20.6
2019-06-01T08:13:26.388Z,20.7
2019-06-01T08:14:38.599Z,20.5
2019-06-01T08:15:50.796Z,20.6
2019-06-01T08:17:02.998Z,20.7
2019-06-01T08:18:15.213Z,20.8
2019-06-01T08:19:27.391Z,20.7
2019-06-01T08:20:39.597Z,20.9
2019-06-01T08:21:51.786Z,20.8
2019-06-01T08:23:03.996Z,20.8
2019-06-01T08:24:16.018Z,20.9
2019-06-01T08:25:28.038Z,21
2019-06-01T08:26:40.578Z,21
2019-06-01T08:27:52.786Z,21
2019-06-01T08:29:04.987Z,21
2019-06-01T08:30:17.186Z,20.9
2019-06-01T08:31:29.388Z,21.1
2019-06-01T08:32:41.578Z,21.1
2019-06-01T08:33:53.786Z,21.1
2019-06-01T08:35:05.978Z,21.2
2019-06-01T08:36:18.170Z,21.1
2019-06-01T08:37:30.376Z,21.1
2019-06-01T08:38:42.575Z,21.3
2019-06-01T08:39:54.775Z,21.3
2019-06-01T08:41:06.974Z,21.4
2019-06-01T08:42:19.156Z,21.5
2019-06-01T08:43:31.365Z,21.3
2019-06-01T08:44:43.565Z,21.5
2019-06-01T08:45:55.767Z,21.4
2019-06-01T08:47:07.963Z,21.3
2019-06-01T08:48:20.164Z,21.4
2019-06-01T08:49:32.356Z,21.5
2019-06-01T08:50:44.567Z,21.6
2019-06-01T08:51:56.766Z,21.6
2019-06-01T08:53:08.962Z,21.8
2019-06-01T08:54:21.155Z,21.8
2019-06-01T08:55:33.347Z,21.8
2019-06-01T08:56:45.554Z,22
2019-06-01T08:57:57.754Z,21.9
2019-06-01T08:59:09.948Z,21.8
2019-06-01T09:00:22.152Z,22
2019-06-01T09:01:34.352Z,21.9
2019-06-01T09:02:46.055Z,21.9
2019-06-01T09:03:58.752Z,22
2019-06-01T09:05:10.954Z,22
2019-06-01T09:06:23.134Z,22.5
2019-06-01T09:07:35.344Z,22.5
2019-06-01T09:08:47.540Z,22.6
2019-06-01T09:09:59.742Z,22.4
2019-06-01T09:11:11.942Z,22.2
2019-06-01T09:12:24.134Z,22.4
2019-06-01T09:13:36.344Z,22.1
2019-06-01T09:14:48.541Z,22.2
2019-06-01T09:16:00.733Z,22.1
2019-06-01T09:17:12.944Z,22.1
2019-06-01T09:18:25.141Z,22.3
2019-06-01T09:19:37.331Z,22.4
2019-06-01T09:20:49.540Z,22.4
2019-06-01T09:22:01.722Z,22.5
2019-06-01T09:23:13.932Z,22.5
2019-06-01T09:24:26.133Z,22.6
2019-06-01T09:25:38.033Z,22.4
2019-06-01T09:26:50.531Z,22.4
2019-06-01T09:28:02.731Z,22.4
2019-06-01T09:29:14.923Z,22.4
2019-06-01T09:30:27.133Z,22.4
2019-06-01T09:31:39.329Z,21.8
2019-06-01T09:32:51.520Z,22
2019-06-01T09:34:03.727Z,21.7
2019-06-01T09:35:15.918Z,22.1
2019-06-01T09:36:28.120Z,22.1
2019-06-01T09:37:40.319Z,22.1
2019-06-01T09:38:52.543Z,22.1
2019-06-01T09:40:04.719Z,22.4
2019-06-01T09:41:16.920Z,22.2
2019-06-01T09:42:29.119Z,22
2019-06-01T09:43:41.326Z,21.9
2019-06-01T09:44:53.501Z,22
2019-06-01T09:46:05.707Z,21.9
2019-06-01T09:47:17.911Z,21.9
2019-06-01T09:48:30.109Z,22.1
2019-06-01T09:49:42.311Z,22.2
2019-06-01T09:50:54.512Z,22.4
2019-06-01T09:52:06.701Z,22.6
2019-06-01T09:53:18.911Z,23
2019-06-01T09:54:31.111Z,22.8
2019-06-01T09:55:43.307Z,23
2019-06-01T09:56:55.509Z,23
2019-06-01T09:58:07.689Z,22.9
2019-06-01T09:59:19.901Z,23.1
2019-06-01T10:00:32.097Z,23.2
2019-06-01T10:01:44.293Z,23.2
2019-06-01T10:02:56.503Z,22.9
2019-06-01T10:04:08.701Z,23.3
2019-06-01T10:05:20.897Z,23.4
2019-06-01T10:06:33.101Z,23.4
2019-06-01T10:07:45.289Z,23.3
2019-06-01T10:08:57.495Z,23.2
2019-06-01T10:10:09.696Z,23.3
2019-06-01T10:11:21.899Z,23.2
2019-06-01T10:12:34.087Z,23.4
2019-06-01T10:13:46.285Z,23.5
2019-06-01T10:14:58.478Z,23.2
2019-06-01T10:16:10.686Z,23.4
2019-06-01T10:17:22.885Z,23.4
2019-06-01T10:18:35.008Z,23.4
2019-06-01T10:19:47.284Z,23.2
2019-06-01T10:20:59.477Z,22.8
2019-06-01T10:22:11.698Z,23
2019-06-01T10:23:23.887Z,22.9
2019-06-01T10:24:36.082Z,22.9
2019-06-01T10:25:48.284Z,22.8
2019-06-01T10:27:00.485Z,23
2019-06-01T10:28:12.680Z,23.3
2019-06-01T10:29:24.878Z,23.2
2019-06-01T10:30:37.073Z,23.1
2019-06-01T10:31:49.266Z,22.9
2019-06-01T10:33:01.473Z,22.7
2019-06-01T10:34:13.675Z,22.3
2019-06-01T10:35:25.878Z,22.1
2019-06-01T10:36:38.000Z,21.7
2019-06-01T10:37:50.267Z,21.8
2019-06-01T10:39:02.047Z,21.8
2019-06-01T10:40:14.674Z,22.2
2019-06-01T10:41:26.867Z,22.3
2019-06-01T10:42:39.064Z,23
2019-06-01T10:43:51.002Z,22.7
2019-06-01T10:45:03.460Z,22.5
2019-06-01T10:46:15.665Z,22.5
2019-06-01T10:47:27.860Z,22.5
2019-06-01T10:48:40.066Z,22.3
2019-06-01T10:49:52.262Z,22
2019-06-01T10:51:04.464Z,21.7
2019-06-01T10:52:16.664Z,21.1
2019-06-01T10:53:28.864Z,21
2019-06-01T10:54:41.056Z,21.3
2019-06-01T10:55:53.262Z,21.4
2019-06-01T10:57:05.450Z,21.3
2019-06-01T10:58:17.656Z,21.2
2019-06-01T10:59:29.856Z,21.2
2019-06-01T11:00:42.045Z,21.2
2019-06-01T11:01:54.257Z,21.3
2019-06-01T11:03:06.454Z,21.2
2019-06-01T11:04:18.644Z,21.2
2019-06-01T11:05:30.855Z,21.3
2019-06-01T11:06:43.048Z,21.1
2019-06-01T11:07:55.258Z,21.2
2019-06-01T11:09:07.457Z,21.2
2019-06-01T11:10:19.644Z,21.6
2019-06-01T11:11:31.840Z,21.5
2019-06-01T11:12:44.040Z,21.4
2019-06-01T11:13:56.240Z,21.4
2019-06-01T11:15:08.440Z,21.5
2019-06-01T11:16:20.064Z,21.4
2019-06-01T11:17:32.833Z,21.3
2019-06-01T11:18:45.042Z,21.3
2019-06-01T11:19:57.242Z,21.1
2019-06-01T11:21:09.440Z,21.1
2019-06-01T11:22:21.642Z,21.4
2019-06-01T11:23:33.822Z,21.2
2019-06-01T11:24:46.028Z,21.1
2019-06-01T11:25:58.232Z,21.1
2019-06-01T11:27:10.430Z,21.6
2019-06-01T11:28:22.063Z,21.9
2019-06-01T11:29:34.830Z,22.4
2019-06-01T11:30:47.028Z,22.6
2019-06-01T11:31:59.230Z,22.7
2019-06-01T11:33:11.042Z,22.2
2019-06-01T11:34:23.630Z,22.4
2019-06-01T11:35:35.083Z,22.1
2019-06-01T11:36:48.022Z,21.7
2019-06-01T11:38:00.221Z,21.4
2019-06-01T11:39:12.419Z,21.2
2019-06-01T11:40:24.006Z,21.7
2019-06-01T11:41:36.824Z,22.2
2019-06-01T11:42:49.020Z,22.3
2019-06-01T11:44:01.219Z,22.1
2019-06-01T11:45:13.417Z,21.8
2019-06-01T11:46:25.613Z,21.8
2019-06-01T11:47:37.817Z,21.8
2019-06-01T11:48:50.011Z,21.6
2019-06-01T11:50:02.019Z,21.7
2019-06-01T11:51:14.409Z,21.4
2019-06-01T11:52:26.609Z,21.4
2019-06-01T11:53:38.807Z,21.8
2019-06-01T11:54:51.009Z,22.3
2019-06-01T11:56:03.203Z,22.7
2019-06-01T11:57:15.410Z,22.7
2019-06-01T11:58:27.612Z,23
2019-06-01T11:59:39.808Z,23.3
2019-06-01T12:00:52.009Z,23.3
2019-06-01T12:02:04.208Z,23.2
2019-06-01T12:03:16.390Z,22.6
2019-06-01T12:04:28.601Z,22.2
2019-06-01T12:05:40.799Z,21.9
2019-06-01T12:06:53.000Z,21.3
2019-06-01T12:08:05.196Z,21.1
2019-06-01T12:09:17.389Z,20.9
2019-06-01T12:10:29.598Z,20.8
2019-06-01T12:11:41.798Z,20.7
2019-06-01T12:12:53.989Z,20.8
2019-06-01T12:14:06.197Z,20.8
2019-06-01T12:15:18.395Z,20.8
2019-06-01T12:16:30.655Z,20.8
2019-06-01T12:17:42.786Z,21.3
2019-06-01T12:18:54.986Z,21.5
2019-06-01T12:20:07.186Z,21.3
2019-06-01T12:21:19.386Z,21.5
2019-06-01T12:22:31.585Z,21.4
2019-06-01T12:23:43.785Z,21.4
2019-06-01T12:24:55.098Z,21.2
2019-06-01T12:26:08.178Z,21
2019-06-01T12:27:20.384Z,21.3
2019-06-01T12:28:32.583Z,21.3
2019-06-01T12:29:44.785Z,21.4
2019-06-01T12:30:56.986Z,21.7
2019-06-01T12:32:09.185Z,21.9
2019-06-01T12:33:21.386Z,22
2019-06-01T12:34:33.585Z,22
2019-06-01T12:35:45.776Z,21.8
2019-06-01T12:36:58.004Z,21.8
2019-06-01T12:38:10.195Z,22.1
2019-06-01T12:39:22.394Z,22.1
2019-06-01T12:40:34.595Z,21.9
2019-06-01T12:41:46.795Z,21.8
2019-06-01T12:42:58.995Z,21.6
2019-06-01T12:44:11.194Z,21.7
2019-06-01T12:45:23.394Z,21.9
2019-06-01T12:46:35.591Z,21.9
2019-06-01T12:47:47.794Z,22.1
2019-06-01T12:48:59.098Z,22.2
2019-06-01T12:50:12.194Z,22.3
2019-06-01T12:51:24.401Z,22.1
2019-06-01T12:52:36.590Z,22.1
2019-06-01T12:53:48.794Z,22
2019-06-01T12:55:00.993Z,21.6
2019-06-01T12:56:13.192Z,21.3
2019-06-01T12:57:25.407Z,21.2
2019-06-01T12:58:37.594Z,21.1
2019-06-01T12:59:49.805Z,20.9
2019-06-01T13:01:02.004Z,20.8
2019-06-01T13:02:14.020Z,20.8
2019-06-01T13:03:26.405Z,20.8
2019-06-01T13:04:38.601Z,21
2019-06-01T13:05:50.801Z,21.1
2019-06-01T13:07:03.000Z,21.3
2019-06-01T13:08:15.201Z,21.2
2019-06-01T13:09:27.404Z,21.4
2019-06-01T13:10:39.603Z,21.3
2019-06-01T13:11:51.792Z,21.3
2019-06-01T13:13:04.124Z,21.1
2019-06-01T13:14:16.210Z,20.8
2019-06-01T13:15:28.407Z,20.8
2019-06-01T13:16:40.614Z,20.8
2019-06-01T13:17:52.811Z,20.9
2019-06-01T13:19:05.011Z,20.8
2019-06-01T13:20:17.212Z,20.9
2019-06-01T13:21:29.402Z,21.1
2019-06-01T13:22:41.618Z,21
2019-06-01T13:23:53.852Z,21.2
2019-06-01T13:25:06.012Z,21.1
2019-06-01T13:26:18.210Z,21
2019-06-01T13:27:30.412Z,21
2019-06-01T13:28:42.613Z,20.9
2019-06-01T13:29:54.821Z,21
2019-06-01T13:31:07.019Z,21
2019-06-01T13:32:19.247Z,21
2019-06-01T13:33:31.420Z,21.1
2019-06-01T13:34:43.614Z,21.2
2019-06-01T13:35:55.816Z,21.6
2019-06-01T13:37:08.021Z,21.6
2019-06-01T13:38:20.210Z,21.7
2019-06-01T13:39:32.421Z,21.8
2019-06-01T13:40:44.650Z,21.9
2019-06-01T13:41:56.081Z,21.9
2019-06-01T13:43:09.029Z,21.7
2019-06-01T13:44:21.222Z,21.4
2019-06-01T13:45:33.430Z,21.4
2019-06-01T13:46:45.063Z,21.1
2019-06-01T13:47:57.083Z,21.1
2019-06-01T13:49:10.034Z,21.2
2019-06-01T13:50:22.230Z,21.1
2019-06-01T13:51:34.418Z,21
2019-06-01T13:52:46.629Z,20.8
2019-06-01T13:53:58.830Z,20.6
2019-06-01T13:55:11.029Z,20.9
2019-06-01T13:56:23.231Z,21.2
2019-06-01T13:57:35.420Z,21.3
2019-06-01T13:58:47.630Z,21.2
2019-06-01T13:59:59.838Z,21.4
2019-06-01T14:01:12.030Z,21.3
2019-06-01T14:02:24.236Z,21.3
2019-06-01T14:03:36.442Z,21.5
2019-06-01T14:04:48.639Z,21.5
2019-06-01T14:06:00.083Z,21.5
2019-06-01T14:07:13.031Z,21.7
2019-06-01T14:08:25.023Z,21.6
2019-06-01T14:09:37.436Z,21.6
2019-06-01T14:10:49.636Z,21.5
2019-06-01T14:12:01.835Z,21.6
2019-06-01T14:13:14.039Z,21.5
2019-06-01T14:14:26.230Z,21.3
2019-06-01T14:15:38.449Z,21.3
2019-06-01T14:16:50.064Z,21.4
2019-06-01T14:18:02.839Z,21.4
2019-06-01T14:19:15.004Z,21.2
2019-06-01T14:20:27.242Z,21.2
2019-06-01T14:21:39.044Z,21
2019-06-01T14:22:51.646Z,20.9
2019-06-01T14:24:03.841Z,20.9
2019-06-01T14:25:16.046Z,20.8
2019-06-01T14:26:28.024Z,21.1
2019-06-01T14:27:40.451Z,21.3
2019-06-01T14:28:52.646Z,21.3
2019-06-01T14:30:04.839Z,21.3
2019-06-01T14:31:17.056Z,21.1
2019-06-01T14:32:29.281Z,20.9
2019-06-01T14:33:41.458Z,20.7
2019-06-01T14:34:53.656Z,20.8
2019-06-01T14:36:05.856Z,20.9
2019-06-01T14:37:18.004Z,20.8
2019-06-01T14:38:30.025Z,20.9
2019-06-01T14:39:42.460Z,20.7
2019-06-01T14:40:54.006Z,20.5
2019-06-01T14:42:06.857Z,20.7
2019-06-01T14:43:19.005Z,20.8
2019-06-01T14:44:31.257Z,20.8
2019-06-01T14:45:43.458Z,20.6
2019-06-01T14:46:55.658Z,20.6
2019-06-01T14:48:07.867Z,20.5
2019-06-01T14:49:20.067Z,20.5
2019-06-01T14:50:32.270Z,20.2
2019-06-01T14:51:44.465Z,20.1
2019-06-01T14:52:56.661Z,20.2
2019-06-01T14:54:08.867Z,20.5
2019-06-01T14:55:21.065Z,20.5
2019-06-01T14:56:33.026Z,20.5
2019-06-01T14:57:45.467Z,20.6
2019-06-01T15:00:09.856Z,20.5
2019-06-01T15:01:22.067Z,20.5
2019-06-01T15:02:34.266Z,20.3
2019-06-01T15:03:46.470Z,20.5
2019-06-01T15:04:58.677Z,20.4
2019-06-01T15:06:10.869Z,20.5
2019-06-01T15:07:23.008Z,20.5
2019-06-01T15:08:35.276Z,20.5
2019-06-01T15:09:47.468Z,20.4
2019-06-01T15:10:59.674Z,20.3
2019-06-01T15:12:11.008Z,20.4
2019-06-01T15:13:24.077Z,20.4
2019-06-01T15:14:36.276Z,20.2
2019-06-01T15:15:48.475Z,20.2
2019-06-01T15:17:00.676Z,20.2
2019-06-01T15:18:12.876Z,20.1
2019-06-01T15:19:25.077Z,20.1
2019-06-01T15:20:37.285Z,20
2019-06-01T15:21:49.487Z,20.1
2019-06-01T15:23:01.724Z,20
2019-06-01T15:24:13.886Z,20.1
2019-06-01T15:25:26.087Z,20
2019-06-01T15:26:38.287Z,20
2019-06-01T15:27:50.048Z,20.1
2019-06-01T15:29:02.679Z,19.9
2019-06-01T15:30:14.887Z,19.9
2019-06-01T15:31:27.085Z,20
2019-06-01T15:32:39.278Z,19.9
2019-06-01T15:33:51.485Z,20
2019-06-01T15:35:03.689Z,19.9
2019-06-01T15:36:15.894Z,20
2019-06-01T15:37:28.087Z,20
2019-06-01T15:38:40.287Z,19.9
2019-06-01T15:39:52.049Z,19.9
2019-06-01T15:41:04.695Z,20
2019-06-01T15:42:16.886Z,19.8
2019-06-01T15:43:29.008Z,20
2019-06-01T15:44:41.289Z,19.8
2019-06-01T15:45:53.484Z,19.8
2019-06-01T15:47:05.699Z,19.8
2019-06-01T15:48:17.903Z,19.9
2019-06-01T15:49:30.096Z,19.7
2019-06-01T15:50:42.296Z,19.7
2019-06-01T15:51:54.491Z,19.7
2019-06-01T15:53:06.692Z,19.7
2019-06-01T15:54:18.897Z,19.7
2019-06-01T15:55:31.091Z,19.8
2019-06-01T15:56:43.298Z,19.7
2019-06-01T15:57:55.498Z,19.6
2019-06-01T15:59:07.707Z,19.6
2019-06-01T16:00:19.910Z,19.6
2019-06-01T16:01:32.109Z,19.6
2019-06-01T16:02:44.316Z,19.6
2019-06-01T16:03:56.503Z,19.7
2019-06-01T16:05:08.707Z,19.5
2019-06-01T16:07:33.111Z,19.5
2019-06-01T16:08:45.302Z,19.6
2019-06-01T16:09:57.509Z,19.6
2019-06-01T16:11:09.719Z,19.5
2019-06-01T16:12:21.918Z,19.4
2019-06-01T16:13:34.116Z,19.4
2019-06-01T16:14:46.309Z,19.4